createdAt,value
2023-03-21T00:02:52.729Z,7.30
2023-03-21T00:05:42.246Z,5.30
2023-03-21T00:08:29.281Z,7.10
2023-03-21T00:11:16.820Z,4.70
2023-03-21T00:14:04.209Z,5.80
2023-03-21T00:16:52.187Z,6.40
2023-03-21T00:19:41.440Z,4.40
2023-03-21T00:22:29.427Z,5.70
2023-03-21T00:25:16.117Z,5.50
2023-03-21T00:28:08.242Z,6.40
2023-03-21T00:30:59.666Z,6.40
2023-03-21T00:33:46.560Z,5.60
2023-03-21T00:36:33.189Z,5.20
2023-03-21T00:39:19.876Z,6.20
2023-03-21T00:42:06.729Z,6.10
2023-03-21T00:44:54.014Z,5.80
2023-03-21T00:47:41.148Z,5.30
2023-03-21T00:50:28.347Z,4.50
2023-03-21T00:53:16.190Z,5.60
2023-03-21T00:56:04.228Z,5.70
2023-03-21T00:58:51.343Z,4.90
2023-03-21T01:01:38.306Z,7.00
2023-03-21T01:04:28.667Z,4.80
2023-03-21T01:07:15.360Z,5.00
2023-03-21T01:10:01.925Z,5.90
2023-03-21T01:12:48.784Z,5.50
2023-03-21T01:15:37.394Z,4.30
2023-03-21T01:18:27.536Z,4.70
2023-03-21T01:21:14.949Z,3.60
2023-03-21T01:24:02.268Z,4.90
2023-03-21T01:26:49.497Z,5.30
2023-03-21T01:29:35.998Z,5.10
2023-03-21T01:32:22.806Z,5.70
2023-03-21T01:35:09.806Z,6.20
2023-03-21T01:37:56.841Z,4.40
2023-03-21T01:40:45.890Z,5.50
2023-03-21T01:43:42.430Z,4.30
2023-03-21T01:46:51.890Z,6.20
2023-03-21T01:50:04.400Z,4.90
2023-03-21T01:52:58.682Z,5.40
2023-03-21T01:55:51.350Z,5.00
2023-03-21T01:59:28.518Z,3.80
2023-03-21T02:02:37.685Z,4.70
2023-03-21T02:05:48.330Z,4.20
2023-03-21T02:08:39.901Z,5.40
2023-03-21T02:11:32.388Z,5.10
2023-03-21T02:14:28.933Z,3.20
2023-03-21T02:17:58.854Z,4.10
2023-03-21T02:21:27.882Z,4.60
2023-03-21T02:24:54.565Z,4.00
2023-03-21T02:28:25.459Z,6.60
2023-03-21T02:31:19.872Z,2.50
2023-03-21T02:34:36.345Z,3.80
2023-03-21T02:37:40.325Z,4.80
2023-03-21T02:40:43.050Z,4.80
2023-03-21T02:43:39.060Z,4.50
2023-03-21T02:46:43.944Z,5.40
2023-03-21T02:49:56.228Z,5.10
2023-03-21T02:52:47.300Z,4.70
2023-03-21T02:55:36.897Z,5.50
2023-03-21T02:58:28.024Z,4.80
2023-03-21T03:01:17.343Z,5.20
2023-03-21T03:04:29.544Z,4.70
2023-03-21T03:07:32.893Z,3.20
2023-03-21T03:10:32.110Z,4.70
2023-03-21T03:14:21.238Z,3.90
2023-03-21T03:17:39.400Z,3.60
2023-03-21T03:20:39.583Z,4.30
2023-03-21T03:23:49.193Z,5.60
2023-03-21T03:27:06.822Z,6.60
2023-03-21T03:29:58.334Z,4.40
2023-03-21T03:32:57.620Z,3.50
2023-03-21T03:35:53.025Z,4.30
2023-03-21T03:38:50.925Z,6.20
2023-03-21T03:42:15.047Z,5.10
2023-03-21T03:44:58.241Z,7.60
2023-03-21T03:47:57.576Z,8.10
2023-03-21T03:51:16.396Z,4.20
2023-03-21T03:54:37.619Z,7.10
2023-03-21T03:57:26.571Z,4.50
2023-03-21T04:00:17.468Z,3.20
2023-03-21T04:03:07.392Z,3.10
2023-03-21T04:05:55.104Z,4.90
2023-03-21T04:08:41.600Z,3.70
2023-03-21T04:11:29.008Z,4.30
2023-03-21T04:14:16.708Z,3.80
2023-03-21T04:17:03.894Z,4.90
2023-03-21T04:20:00.007Z,5.50
2023-03-21T04:22:54.408Z,4.50
2023-03-21T04:25:53.944Z,4.10
2023-03-21T04:28:44.012Z,3.30
2023-03-21T04:31:42.935Z,12.10
2023-03-21T04:34:32.067Z,5.10
2023-03-21T04:37:23.638Z,3.60
2023-03-21T04:40:11.318Z,4.60
2023-03-21T04:43:01.402Z,5.60
2023-03-21T04:45:48.766Z,6.80
2023-03-21T04:48:35.630Z,6.80
2023-03-21T04:51:22.349Z,8.20
2023-03-21T04:54:11.728Z,6.50
2023-03-21T04:56:59.242Z,6.20
2023-03-21T04:59:47.409Z,8.50
2023-03-21T05:02:34.667Z,7.70
2023-03-21T05:05:21.932Z,5.90
2023-03-21T05:08:09.050Z,7.00
2023-03-21T05:10:55.781Z,9.10
2023-03-21T05:13:46.561Z,8.20
2023-03-21T05:16:34.974Z,8.70
2023-03-21T05:19:26.096Z,8.00
2023-03-21T05:22:14.473Z,7.80
2023-03-21T05:25:01.739Z,8.90
2023-03-21T05:27:54.955Z,16.10
2023-03-21T05:30:46.573Z,16.40
2023-03-21T05:33:33.700Z,10.70
2023-03-21T05:36:20.684Z,17.40
2023-03-21T05:39:07.830Z,33.40
2023-03-21T05:41:56.800Z,32.10
2023-03-21T05:44:45.855Z,35.30
2023-03-21T05:47:33.488Z,30.40
2023-03-21T05:50:20.736Z,36.60
2023-03-21T05:53:15.808Z,35.90
2023-03-21T05:56:03.641Z,38.30
2023-03-21T05:59:04.398Z,58.70
2023-03-21T06:01:53.765Z,56.70
2023-03-21T06:04:41.696Z,67.90
2023-03-21T06:07:28.845Z,32.70
2023-03-21T06:10:16.352Z,41.10
2023-03-21T06:13:05.080Z,35.10
2023-03-21T06:15:54.119Z,46.30
2023-03-21T06:18:43.838Z,35.60
2023-03-21T06:21:44.172Z,32.50
2023-03-21T06:24:32.218Z,29.30
2023-03-21T06:27:19.000Z,24.00
2023-03-21T06:30:14.742Z,26.80
2023-03-21T06:33:08.609Z,28.20
2023-03-21T06:35:58.591Z,23.60
2023-03-21T06:38:47.102Z,36.90
2023-03-21T06:41:34.811Z,31.20
2023-03-21T06:44:24.594Z,22.40
2023-03-21T06:47:17.536Z,19.90
2023-03-21T06:50:07.168Z,24.50
2023-03-21T06:53:00.058Z,33.50
2023-03-21T06:55:51.756Z,26.20
2023-03-21T06:58:40.745Z,36.70
2023-03-21T07:01:31.072Z,22.40
2023-03-21T07:04:24.087Z,29.30
2023-03-21T07:07:12.020Z,15.30
2023-03-21T07:09:59.446Z,20.00
2023-03-21T07:12:47.389Z,37.00
2023-03-21T07:15:55.097Z,19.00
2023-03-21T07:18:42.823Z,14.10
2023-03-21T07:21:32.499Z,21.30
2023-03-21T07:24:19.421Z,18.30
2023-03-21T07:27:07.458Z,17.40
2023-03-21T07:29:54.696Z,18.90
2023-03-21T07:32:41.900Z,17.40
2023-03-21T07:35:28.821Z,19.50
2023-03-21T07:38:17.997Z,17.30
2023-03-21T07:41:05.507Z,20.60
2023-03-21T07:43:53.862Z,15.00
2023-03-21T07:46:41.479Z,18.30
2023-03-21T07:49:28.916Z,13.50
2023-03-21T07:52:15.608Z,13.80
2023-03-21T07:55:02.531Z,16.90
2023-03-21T07:57:53.236Z,13.10
2023-03-21T08:00:39.748Z,15.40
2023-03-21T08:03:29.492Z,33.10
2023-03-21T08:06:16.758Z,15.80
2023-03-21T08:09:04.265Z,12.50
2023-03-21T08:11:51.182Z,16.80
2023-03-21T08:14:38.903Z,12.40
2023-03-21T08:17:25.937Z,13.70
2023-03-21T08:20:16.547Z,15.00
2023-03-21T08:23:03.650Z,13.80
2023-03-21T08:25:53.364Z,19.10
2023-03-21T08:28:40.449Z,14.60
2023-03-21T08:31:28.526Z,12.10
2023-03-21T08:34:15.467Z,16.60
2023-03-21T08:37:02.927Z,18.30
2023-03-21T08:39:49.541Z,14.20
2023-03-21T08:42:37.061Z,12.30
2023-03-21T08:45:24.682Z,16.60
2023-03-21T08:48:11.972Z,16.60
2023-03-21T08:51:02.097Z,10.50
2023-03-21T08:53:51.595Z,15.70
2023-03-21T08:56:38.491Z,13.80
2023-03-21T08:59:26.009Z,13.30
2023-03-21T09:02:17.026Z,15.00
2023-03-21T09:05:06.199Z,13.20
2023-03-21T09:07:53.311Z,13.10
2023-03-21T09:10:40.850Z,12.70
2023-03-21T09:13:27.449Z,10.60
2023-03-21T09:16:14.794Z,12.30
2023-03-21T09:19:03.438Z,10.10
2023-03-21T09:21:50.825Z,8.90
2023-03-21T09:24:38.260Z,7.90
2023-03-21T09:27:28.329Z,8.70
2023-03-21T09:30:18.422Z,16.00
2023-03-21T09:33:13.356Z,6.50
2023-03-21T09:36:01.543Z,11.90
2023-03-21T09:38:50.249Z,10.00
2023-03-21T09:41:55.723Z,10.30
2023-03-21T09:44:56.359Z,9.60
2023-03-21T09:47:53.649Z,10.70
2023-03-21T09:50:41.639Z,10.50
2023-03-21T09:53:37.140Z,8.40
2023-03-21T09:56:26.259Z,8.30
2023-03-21T09:59:22.954Z,8.90
2023-03-21T10:02:41.639Z,11.60
2023-03-21T10:05:32.764Z,18.80
2023-03-21T10:08:26.380Z,8.00
2023-03-21T10:11:19.964Z,8.70
2023-03-21T10:14:29.686Z,9.40
2023-03-21T10:17:48.978Z,17.30
2023-03-21T10:20:38.964Z,11.50
2023-03-21T10:23:29.058Z,9.30
2023-03-21T10:26:17.154Z,9.60
2023-03-21T10:29:04.230Z,8.50
2023-03-21T10:31:54.453Z,8.20
2023-03-21T10:37:48.401Z,8.40
2023-03-21T10:40:35.672Z,10.20
2023-03-21T10:43:33.415Z,9.00
2023-03-21T10:46:21.701Z,8.10
2023-03-21T10:49:08.858Z,8.60
2023-03-21T10:51:59.478Z,7.50
2023-03-21T10:54:47.489Z,7.90
2023-03-21T10:57:38.174Z,12.30
2023-03-21T11:00:29.595Z,8.10
2023-03-21T11:03:24.000Z,10.00
2023-03-21T11:06:26.790Z,9.40
2023-03-21T11:09:20.520Z,12.40
2023-03-21T11:12:13.293Z,7.80
2023-03-21T11:15:25.006Z,8.30
2023-03-21T11:18:21.825Z,10.30
2023-03-21T11:21:12.119Z,14.40
2023-03-21T11:24:00.603Z,7.20
2023-03-21T11:26:50.075Z,9.90
2023-03-21T11:29:42.765Z,8.50
2023-03-21T11:32:34.563Z,9.30
2023-03-21T11:35:32.255Z,9.70
2023-03-21T11:38:48.731Z,12.40
2023-03-21T11:41:35.745Z,8.00
2023-03-21T11:44:30.771Z,6.80
2023-03-21T11:47:17.882Z,6.80
2023-03-21T11:50:29.678Z,8.40
2023-03-21T11:56:34.393Z,8.60
2023-03-21T11:59:51.002Z,7.40
2023-03-21T12:03:06.147Z,6.50
2023-03-21T12:05:56.392Z,9.50
2023-03-21T12:09:18.838Z,10.60
2023-03-21T12:12:39.269Z,9.50
2023-03-21T12:15:35.593Z,10.80
2023-03-21T12:18:44.092Z,7.20
2023-03-21T12:21:35.437Z,5.70
2023-03-21T12:24:27.036Z,7.70
2023-03-21T12:27:32.984Z,7.70
2023-03-21T12:30:24.410Z,7.30
2023-03-21T12:33:35.798Z,7.70
2023-03-21T12:36:25.509Z,8.50
2023-03-21T12:39:46.684Z,7.60
2023-03-21T12:42:47.560Z,9.60
2023-03-21T12:45:46.709Z,9.70
2023-03-21T12:49:12.039Z,9.50
2023-03-21T12:52:08.187Z,6.40
2023-03-21T12:55:02.148Z,12.00
2023-03-21T12:57:57.663Z,8.00
2023-03-21T13:00:53.643Z,8.00
2023-03-21T13:03:46.881Z,7.80
2023-03-21T13:06:36.708Z,7.70
2023-03-21T13:09:38.218Z,5.50
2023-03-21T13:12:49.481Z,8.00
2023-03-21T13:15:48.958Z,7.90
2023-03-21T13:18:36.107Z,8.20
2023-03-21T13:21:29.775Z,7.50
2023-03-21T13:24:16.896Z,5.10
2023-03-21T13:27:27.580Z,5.90
2023-03-21T13:30:14.440Z,4.30
2023-03-21T13:33:20.511Z,5.10
2023-03-21T13:36:09.329Z,5.80
2023-03-21T13:39:01.842Z,5.50
2023-03-21T13:41:49.904Z,4.50
2023-03-21T13:44:43.742Z,4.60
2023-03-21T13:47:57.405Z,4.30
2023-03-21T13:50:54.742Z,4.80
2023-03-21T13:53:45.775Z,6.10
2023-03-21T13:56:45.281Z,5.00
2023-03-21T13:59:35.082Z,4.60
2023-03-21T14:02:34.130Z,4.40
2023-03-21T14:05:24.036Z,3.00
2023-03-21T14:08:27.729Z,5.00
2023-03-21T14:11:20.209Z,7.40
2023-03-21T14:14:07.212Z,5.80
2023-03-21T14:16:54.527Z,5.90
2023-03-21T14:19:41.619Z,3.10
2023-03-21T14:22:29.918Z,3.80
2023-03-21T14:25:19.954Z,4.30
2023-03-21T14:28:14.375Z,4.30
2023-03-21T14:31:02.100Z,5.40
2023-03-21T14:33:56.162Z,12.50
2023-03-21T14:36:51.748Z,4.70
2023-03-21T14:39:44.259Z,17.90
2023-03-21T14:42:35.873Z,28.40
2023-03-21T14:45:28.544Z,24.30
2023-03-21T14:48:17.260Z,17.80
2023-03-21T14:51:12.406Z,27.80
2023-03-21T14:53:58.996Z,20.50
2023-03-21T14:57:08.129Z,28.10
2023-03-21T14:59:59.408Z,39.40
2023-03-21T15:05:38.574Z,8.20
2023-03-21T15:08:28.331Z,7.20
2023-03-21T15:11:15.485Z,8.20
2023-03-21T15:14:09.110Z,6.30
2023-03-21T15:16:57.823Z,3.10
2023-03-21T15:19:44.841Z,4.30
2023-03-21T15:22:40.940Z,4.90
2023-03-21T15:25:31.409Z,4.10
2023-03-21T15:28:18.982Z,3.50
2023-03-21T15:31:13.879Z,3.20
2023-03-21T15:34:01.915Z,4.00
2023-03-21T15:36:55.297Z,6.10
2023-03-21T15:39:43.040Z,12.40
2023-03-21T15:42:34.498Z,13.10
2023-03-21T15:45:24.949Z,8.40
2023-03-21T15:48:14.504Z,8.60
2023-03-21T15:51:06.244Z,9.80
2023-03-21T15:53:57.167Z,14.40
2023-03-21T15:56:46.321Z,10.80
2023-03-21T15:59:38.872Z,13.00
2023-03-21T16:02:31.203Z,14.60
2023-03-21T16:05:26.131Z,13.20
2023-03-21T16:08:13.226Z,67.80
2023-03-21T16:11:08.143Z,127.60
2023-03-21T16:13:56.823Z,79.50
2023-03-21T16:16:43.726Z,41.80
2023-03-21T16:19:31.010Z,17.60
2023-03-21T16:22:21.508Z,17.30
2023-03-21T16:25:09.762Z,21.60
2023-03-21T16:27:57.309Z,12.20
2023-03-21T16:30:45.744Z,9.60
2023-03-21T16:33:32.694Z,12.80
2023-03-21T16:36:28.566Z,9.40
2023-03-21T16:39:24.404Z,5.90
2023-03-21T16:42:13.359Z,8.90
2023-03-21T16:45:00.221Z,6.80
2023-03-21T16:47:47.542Z,8.60
2023-03-21T16:50:42.311Z,5.70
2023-03-21T16:53:28.908Z,13.50
2023-03-21T16:56:26.200Z,8.90
2023-03-21T16:59:14.405Z,10.10
2023-03-21T17:02:01.946Z,6.70
2023-03-21T17:04:49.341Z,9.00
2023-03-21T17:07:36.165Z,9.10
2023-03-21T17:10:26.212Z,5.90
2023-03-21T17:13:13.577Z,6.30
2023-03-21T17:16:00.798Z,7.80
2023-03-21T17:18:49.149Z,11.00
2023-03-21T17:21:36.265Z,10.70
2023-03-21T17:24:23.974Z,9.40
2023-03-21T17:27:14.717Z,9.30
2023-03-21T17:30:01.825Z,13.50
2023-03-21T17:32:50.570Z,11.10
2023-03-21T17:35:37.710Z,24.90
2023-03-21T17:38:24.908Z,17.60
2023-03-21T17:41:18.070Z,15.80
2023-03-21T17:44:05.194Z,11.30
2023-03-21T17:46:53.342Z,26.10
2023-03-21T17:49:40.768Z,14.30
2023-03-21T17:52:28.085Z,15.30
2023-03-21T17:55:19.375Z,17.50
2023-03-21T17:58:06.355Z,18.80
2023-03-21T18:00:53.830Z,16.60
2023-03-21T18:03:40.847Z,18.60
2023-03-21T18:06:27.868Z,15.80
2023-03-21T18:09:19.832Z,14.60
2023-03-21T18:12:08.037Z,14.90
2023-03-21T18:14:54.852Z,17.30
2023-03-21T18:17:41.672Z,13.00
2023-03-21T18:20:50.195Z,23.00
2023-03-21T18:23:36.580Z,22.80
2023-03-21T18:26:24.631Z,16.60
2023-03-21T18:30:15.787Z,15.50
2023-03-21T18:32:24.510Z,11.70
2023-03-21T18:35:13.438Z,13.40
2023-03-21T18:38:00.176Z,13.50
2023-03-21T18:40:48.179Z,16.30
2023-03-21T18:46:47.559Z,15.10
2023-03-21T18:50:10.362Z,17.00
2023-03-21T18:52:42.426Z,11.60
2023-03-21T18:55:44.385Z,12.30
2023-03-21T18:58:32.126Z,12.70
2023-03-21T19:01:19.198Z,14.90
2023-03-21T19:04:20.985Z,11.90
2023-03-21T19:07:11.172Z,11.60
2023-03-21T19:10:16.424Z,12.90
2023-03-21T19:13:04.681Z,9.50
2023-03-21T19:15:51.578Z,11.10
2023-03-21T19:18:53.465Z,13.30
2023-03-21T19:21:41.396Z,9.50
2023-03-21T19:24:29.049Z,10.50
2023-03-21T19:27:16.451Z,9.10
2023-03-21T19:30:14.642Z,10.80
2023-03-21T19:33:02.815Z,9.20
2023-03-21T19:36:08.866Z,9.40
2023-03-21T19:38:58.106Z,10.70
2023-03-21T19:41:45.463Z,12.20
2023-03-21T19:44:33.457Z,9.60
2023-03-21T19:47:20.770Z,13.50
2023-03-21T19:50:47.313Z,9.80
2023-03-21T19:53:16.437Z,10.60
2023-03-21T19:56:07.602Z,10.70
2023-03-21T19:59:03.325Z,8.30
2023-03-21T20:01:56.423Z,7.50
2023-03-21T20:04:45.274Z,10.10
2023-03-21T20:07:33.131Z,9.00
2023-03-21T20:10:20.637Z,10.50
2023-03-21T20:13:07.759Z,8.00
2023-03-21T20:15:55.661Z,6.30
2023-03-21T20:18:45.075Z,7.00
2023-03-21T20:21:44.420Z,12.00
2023-03-21T20:24:36.499Z,8.80
2023-03-21T20:27:25.879Z,11.30
2023-03-21T20:30:17.112Z,6.70
2023-03-21T20:33:04.522Z,7.20
2023-03-21T20:36:47.955Z,10.50
2023-03-21T20:39:12.463Z,9.80
2023-03-21T20:41:59.707Z,7.70
2023-03-21T20:45:02.667Z,6.00
2023-03-21T20:47:50.203Z,4.90
2023-03-21T20:50:39.583Z,7.30
2023-03-21T20:53:26.991Z,8.70
2023-03-21T20:56:13.894Z,5.20
2023-03-21T20:59:16.149Z,8.30
2023-03-21T21:02:05.422Z,8.30
2023-03-21T21:05:21.935Z,6.70
2023-03-21T21:08:01.380Z,10.40
2023-03-21T21:11:32.654Z,6.70
2023-03-21T21:13:58.392Z,6.80
2023-03-21T21:16:45.735Z,8.30
2023-03-21T21:19:34.026Z,7.70
2023-03-21T21:22:21.147Z,5.70
2023-03-21T21:25:08.566Z,6.50
2023-03-21T21:28:11.878Z,6.80
2023-03-21T21:31:16.703Z,7.40
2023-03-21T21:34:05.655Z,9.60
2023-03-21T21:36:52.564Z,7.80
2023-03-21T21:39:40.254Z,5.80
2023-03-21T21:42:27.604Z,5.90
2023-03-21T21:45:15.757Z,5.40
2023-03-21T21:48:03.232Z,4.40
2023-03-21T21:50:52.163Z,6.40
2023-03-21T21:53:38.965Z,7.40
2023-03-21T21:56:32.215Z,6.30
2023-03-21T21:59:22.158Z,10.10
2023-03-21T22:02:11.766Z,4.90
2023-03-21T22:04:58.465Z,6.00
2023-03-21T22:07:46.745Z,6.40
2023-03-21T22:10:33.462Z,6.40
2023-03-21T22:13:20.474Z,6.50
2023-03-21T22:16:07.864Z,6.30
2023-03-21T22:18:54.976Z,5.80
2023-03-21T22:21:41.921Z,5.60
2023-03-21T22:24:28.372Z,7.10
2023-03-21T22:27:15.748Z,6.40
2023-03-21T22:30:04.858Z,7.40
2023-03-21T22:33:06.274Z,5.70
2023-03-21T22:35:55.058Z,8.10
2023-03-21T22:38:42.132Z,10.20
2023-03-21T22:41:29.384Z,8.40
2023-03-21T22:44:16.461Z,4.50
2023-03-21T22:47:09.320Z,4.20
2023-03-21T22:49:56.345Z,6.60
2023-03-21T22:52:43.272Z,7.40
2023-03-21T22:55:30.064Z,4.70
2023-03-21T22:58:17.496Z,6.40
2023-03-21T23:01:05.622Z,6.30
2023-03-21T23:03:52.409Z,4.60
2023-03-21T23:06:39.801Z,6.90
2023-03-21T23:09:27.412Z,6.90
2023-03-21T23:12:14.842Z,4.40
2023-03-21T23:15:02.368Z,7.10
2023-03-21T23:17:49.906Z,4.70
2023-03-21T23:20:36.555Z,5.80
2023-03-21T23:23:24.949Z,3.40
2023-03-21T23:26:11.795Z,6.40
2023-03-21T23:28:58.777Z,4.50
2023-03-21T23:31:45.788Z,7.20
2023-03-21T23:34:32.396Z,6.90
2023-03-21T23:37:19.177Z,5.80
2023-03-21T23:40:06.695Z,5.90
2023-03-21T23:42:53.754Z,5.90
2023-03-21T23:45:41.052Z,5.40
2023-03-21T23:48:29.233Z,5.20
2023-03-21T23:51:17.774Z,7.60
2023-03-21T23:54:04.584Z,5.90
2023-03-21T23:56:51.188Z,5.90
2023-03-21T23:59:38.101Z,4.80
